createdAt,value
2022-10-05T00:01:35.573Z,10.33
2022-10-05T00:04:18.844Z,10.34
2022-10-05T00:07:05.565Z,10.33
2022-10-05T00:09:37.894Z,10.34
2022-10-05T00:12:18.033Z,10.35
2022-10-05T00:14:53.494Z,10.35
2022-10-05T00:17:27.903Z,10.34
2022-10-05T00:19:59.983Z,10.35
2022-10-05T00:22:34.854Z,10.34
2022-10-05T00:25:09.763Z,10.32
2022-10-05T00:27:42.183Z,10.26
2022-10-05T00:30:20.025Z,10.21
2022-10-05T00:32:58.641Z,10.19
2022-10-05T00:35:28.935Z,10.13
2022-10-05T00:38:00.909Z,10.12
2022-10-05T00:40:42.072Z,10.12
2022-10-05T00:43:31.771Z,10.15
2022-10-05T00:46:21.453Z,10.16
2022-10-05T00:49:08.327Z,10.14
2022-10-05T00:51:41.985Z,10.15
2022-10-05T00:54:22.657Z,10.14
2022-10-05T00:56:57.501Z,10.15
2022-10-05T00:59:41.200Z,10.12
2022-10-05T01:02:39.496Z,10.10
2022-10-05T01:05:17.112Z,10.11
2022-10-05T01:08:07.102Z,10.11
2022-10-05T01:11:13.423Z,10.12
2022-10-05T01:13:54.077Z,10.13
2022-10-05T01:16:29.280Z,10.13
2022-10-05T01:19:13.014Z,10.12
2022-10-05T01:21:48.041Z,10.12
2022-10-05T01:24:28.803Z,10.15
2022-10-05T01:27:12.562Z,10.14
2022-10-05T01:29:57.893Z,10.11
2022-10-05T01:32:39.212Z,10.11
2022-10-05T01:35:20.261Z,10.09
2022-10-05T01:38:04.083Z,10.05
2022-10-05T01:40:38.998Z,10.03
2022-10-05T01:43:32.957Z,10.00
2022-10-05T01:46:13.888Z,9.96
2022-10-05T01:48:54.910Z,9.93
2022-10-05T01:51:29.801Z,9.91
2022-10-05T01:54:30.846Z,9.88
2022-10-05T01:57:23.407Z,9.86
2022-10-05T02:00:03.903Z,9.85
2022-10-05T02:02:40.459Z,9.85
2022-10-05T02:05:24.384Z,9.84
2022-10-05T02:08:02.086Z,9.81
2022-10-05T02:10:57.822Z,9.81
2022-10-05T02:13:55.467Z,9.79
2022-10-05T02:16:40.081Z,9.79
2022-10-05T02:19:26.731Z,9.77
2022-10-05T02:22:01.624Z,9.72
2022-10-05T02:24:38.093Z,9.70
2022-10-05T02:27:12.840Z,9.65
2022-10-05T02:29:48.180Z,9.63
2022-10-05T02:32:24.765Z,9.60
2022-10-05T02:35:00.364Z,9.61
2022-10-05T02:37:54.201Z,9.60
2022-10-05T02:40:56.619Z,9.58
2022-10-05T02:43:46.308Z,9.57
2022-10-05T02:46:33.088Z,9.56
2022-10-05T02:49:17.012Z,9.55
2022-10-05T02:51:58.195Z,9.51
2022-10-05T02:55:07.383Z,9.50
2022-10-05T02:57:48.791Z,9.45
2022-10-05T03:00:24.478Z,9.40
2022-10-05T03:03:01.877Z,9.35
2022-10-05T03:05:48.651Z,9.31
2022-10-05T03:08:35.977Z,9.29
2022-10-05T03:11:38.244Z,9.27
2022-10-05T03:14:28.631Z,9.26
2022-10-05T03:17:06.570Z,9.25
2022-10-05T03:19:48.116Z,9.25
2022-10-05T03:22:46.950Z,9.21
2022-10-05T03:25:25.167Z,9.20
2022-10-05T03:28:25.558Z,9.22
2022-10-05T03:31:12.880Z,9.21
2022-10-05T03:34:05.753Z,9.20
2022-10-05T03:36:56.178Z,9.17
2022-10-05T03:39:46.353Z,9.14
2022-10-05T03:42:27.450Z,9.11
2022-10-05T03:45:26.638Z,9.10
2022-10-05T03:48:14.101Z,9.09
2022-10-05T03:50:55.097Z,9.07
2022-10-05T03:53:38.607Z,9.07
2022-10-05T03:56:19.786Z,9.09
2022-10-05T03:59:01.385Z,9.06
2022-10-05T04:01:48.776Z,9.04
2022-10-05T04:04:29.625Z,9.01
2022-10-05T04:07:03.079Z,8.98
2022-10-05T04:09:41.102Z,8.97
2022-10-05T04:12:33.372Z,8.97
2022-10-05T04:15:19.007Z,8.98
2022-10-05T04:18:05.965Z,9.00
2022-10-05T04:20:42.226Z,9.03
2022-10-05T04:23:29.039Z,9.05
2022-10-05T04:26:09.633Z,9.06
2022-10-05T04:28:53.717Z,9.06
2022-10-05T04:31:43.839Z,9.05
2022-10-05T04:34:43.923Z,9.08
2022-10-05T04:37:24.830Z,9.09
2022-10-05T04:40:14.596Z,9.10
2022-10-05T04:42:58.282Z,9.10
2022-10-05T04:45:36.301Z,9.12
2022-10-05T04:48:26.105Z,9.15
2022-10-05T04:51:22.201Z,9.18
2022-10-05T04:53:57.112Z,9.23
2022-10-05T04:56:32.622Z,9.29
2022-10-05T04:59:11.254Z,9.31
2022-10-05T05:02:06.862Z,9.34
2022-10-05T05:04:57.217Z,9.38
2022-10-05T05:08:05.300Z,9.46
2022-10-05T05:10:52.121Z,9.53
2022-10-05T05:14:00.070Z,9.63
2022-10-05T05:16:38.684Z,9.74
2022-10-05T05:19:26.297Z,9.84
2022-10-05T05:22:14.408Z,9.89
2022-10-05T05:25:11.351Z,9.97
2022-10-05T05:27:55.432Z,10.02
2022-10-05T05:30:29.611Z,10.07
2022-10-05T05:33:13.519Z,10.33
2022-10-05T05:35:58.049Z,10.24
2022-10-05T05:38:33.835Z,10.30
2022-10-05T05:41:12.409Z,10.52
2022-10-05T05:43:55.106Z,10.37
2022-10-05T05:47:02.213Z,10.44
2022-10-05T05:49:22.960Z,10.52
2022-10-05T05:52:00.852Z,10.59
2022-10-05T05:54:36.523Z,10.60
2022-10-05T05:57:11.654Z,10.60
2022-10-05T05:59:49.870Z,10.57
2022-10-05T06:02:25.138Z,10.52
2022-10-05T06:05:05.599Z,10.52
2022-10-05T06:07:41.267Z,10.49
2022-10-05T06:10:31.708Z,10.56
2022-10-05T06:13:08.186Z,10.58
2022-10-05T06:15:46.036Z,10.66
2022-10-05T06:18:21.263Z,10.75
2022-10-05T06:21:02.813Z,10.87
2022-10-05T06:23:41.050Z,11.06
2022-10-05T06:26:30.801Z,11.26
2022-10-05T06:29:09.383Z,11.39
2022-10-05T06:31:58.530Z,11.44
2022-10-05T06:34:41.779Z,11.47
2022-10-05T06:37:20.331Z,11.48
2022-10-05T06:40:07.476Z,11.46
2022-10-05T06:43:09.627Z,11.43
2022-10-05T06:46:03.051Z,11.41
2022-10-05T06:48:48.576Z,11.38
2022-10-05T06:51:58.091Z,11.45
2022-10-05T06:54:54.365Z,11.53
2022-10-05T06:57:38.064Z,11.54
2022-10-05T07:00:19.592Z,11.62
2022-10-05T07:03:08.267Z,11.76
2022-10-05T07:05:47.847Z,11.81
2022-10-05T07:08:23.935Z,11.79
2022-10-05T07:11:07.740Z,11.77
2022-10-05T07:13:59.156Z,11.82
2022-10-05T07:16:49.184Z,11.91
2022-10-05T07:19:51.018Z,12.04
2022-10-05T07:22:54.626Z,12.19
2022-10-05T07:25:38.640Z,12.42
2022-10-05T07:28:38.148Z,12.58
2022-10-05T07:31:25.074Z,12.72
2022-10-05T07:34:06.095Z,12.76
2022-10-05T07:36:58.152Z,12.79
2022-10-05T07:39:59.610Z,12.89
2022-10-05T07:42:29.173Z,13.13
2022-10-05T07:45:13.333Z,13.39
2022-10-05T07:47:54.694Z,13.63
2022-10-05T07:50:45.499Z,13.76
2022-10-05T07:53:24.177Z,13.76
2022-10-05T07:55:59.624Z,13.90
2022-10-05T07:58:41.605Z,13.87
2022-10-05T08:01:18.357Z,13.86
2022-10-05T08:04:09.630Z,13.87
2022-10-05T08:06:51.264Z,13.82
2022-10-05T08:09:45.855Z,13.65
2022-10-05T08:12:43.046Z,13.54
2022-10-05T08:15:21.226Z,13.48
2022-10-05T08:18:06.004Z,13.43
2022-10-05T08:20:46.693Z,13.47
2022-10-05T08:23:39.407Z,13.53
2022-10-05T08:26:45.980Z,13.52
2022-10-05T08:29:29.972Z,13.48
2022-10-05T08:32:26.017Z,13.35
2022-10-05T08:35:00.836Z,13.29
2022-10-05T08:37:36.763Z,13.36
2022-10-05T08:40:27.946Z,13.39
2022-10-05T08:43:35.126Z,13.47
2022-10-05T08:46:13.742Z,13.59
2022-10-05T08:49:04.824Z,13.73
2022-10-05T08:51:49.065Z,13.72
2022-10-05T08:54:33.265Z,13.67
2022-10-05T08:57:14.366Z,13.52
2022-10-05T09:00:13.622Z,13.26
2022-10-05T09:02:51.907Z,12.99
2022-10-05T09:05:42.064Z,12.64
2022-10-05T09:08:36.375Z,12.25
2022-10-05T09:11:32.461Z,11.77
2022-10-05T09:14:39.136Z,11.45
2022-10-05T09:17:16.820Z,11.31
2022-10-05T09:19:52.045Z,11.42
2022-10-05T09:22:49.426Z,11.55
2022-10-05T09:25:25.110Z,11.69
2022-10-05T09:28:00.404Z,11.83
2022-10-05T09:30:44.646Z,11.99
2022-10-05T09:33:26.248Z,12.09
2022-10-05T09:36:13.139Z,12.20
2022-10-05T09:39:12.184Z,12.22
2022-10-05T09:42:06.527Z,12.25
2022-10-05T09:44:45.717Z,12.31
2022-10-05T09:47:38.448Z,12.58
2022-10-05T09:50:22.972Z,12.92
2022-10-05T09:53:16.038Z,13.32
2022-10-05T09:56:08.880Z,13.65
2022-10-05T09:59:06.539Z,13.80
2022-10-05T10:01:47.976Z,13.92
2022-10-05T10:04:41.257Z,13.96
2022-10-05T10:07:32.714Z,13.96
2022-10-05T10:10:19.950Z,13.93
2022-10-05T10:13:13.051Z,13.85
2022-10-05T10:16:00.523Z,13.98
2022-10-05T10:19:08.792Z,14.05
2022-10-05T10:22:05.069Z,14.07
2022-10-05T10:25:07.179Z,13.94
2022-10-05T10:28:18.544Z,13.79
2022-10-05T10:31:26.231Z,13.64
2022-10-05T10:34:23.305Z,13.41
2022-10-05T10:37:01.187Z,13.23
2022-10-05T10:39:55.704Z,13.03
2022-10-05T10:42:51.955Z,12.92
2022-10-05T10:45:46.032Z,12.76
2022-10-05T10:48:23.871Z,12.64
2022-10-05T10:50:58.995Z,12.61
2022-10-05T10:53:34.308Z,12.53
2022-10-05T10:56:27.088Z,12.47
2022-10-05T10:59:10.802Z,12.40
2022-10-05T11:01:48.783Z,12.31
2022-10-05T11:04:35.869Z,12.27
2022-10-05T11:07:40.715Z,12.37
2022-10-05T11:10:38.071Z,12.66
2022-10-05T11:13:22.345Z,13.15
2022-10-05T11:16:03.536Z,13.79
2022-10-05T11:18:55.811Z,14.12
2022-10-05T11:21:35.386Z,14.15
2022-10-05T11:24:22.259Z,14.03
2022-10-05T11:27:07.680Z,13.98
2022-10-05T11:30:10.779Z,13.93
2022-10-05T11:33:03.483Z,13.80
2022-10-05T11:35:53.702Z,13.58
2022-10-05T11:38:44.377Z,13.33
2022-10-05T11:41:25.114Z,13.10
2022-10-05T11:44:16.196Z,12.86
2022-10-05T11:47:06.142Z,12.70
2022-10-05T11:49:47.138Z,12.52
2022-10-05T11:52:22.171Z,12.46
2022-10-05T11:55:14.927Z,12.44
2022-10-05T11:57:56.278Z,12.42
2022-10-05T12:00:50.327Z,12.43
2022-10-05T12:03:25.359Z,12.39
2022-10-05T12:06:09.488Z,12.38
2022-10-05T12:08:50.406Z,12.39
2022-10-05T12:11:44.992Z,12.47
2022-10-05T12:14:29.448Z,12.53
2022-10-05T12:17:06.984Z,12.50
2022-10-05T12:19:50.995Z,12.36
2022-10-05T12:22:35.148Z,12.20
2022-10-05T12:25:22.029Z,12.04
2022-10-05T12:27:57.063Z,11.88
2022-10-05T12:30:54.967Z,11.55
2022-10-05T12:33:29.963Z,11.31
2022-10-05T12:36:10.879Z,11.11
2022-10-05T12:39:05.409Z,11.11
2022-10-05T12:41:49.313Z,11.24
2022-10-05T12:44:39.911Z,11.48
2022-10-05T12:47:26.546Z,11.86
2022-10-05T12:50:22.585Z,13.27
2022-10-05T12:53:19.937Z,17.26
2022-10-05T12:55:57.733Z,17.26
2022-10-05T12:58:35.748Z,16.97
2022-10-05T13:01:28.723Z,16.13
2022-10-05T13:04:03.766Z,15.31
2022-10-05T13:06:38.752Z,14.59
2022-10-05T13:09:31.737Z,14.16
2022-10-05T13:12:09.950Z,14.65
2022-10-05T13:14:44.930Z,15.84
2022-10-05T13:17:19.922Z,16.61
2022-10-05T13:20:01.655Z,18.81
2022-10-05T13:22:42.960Z,21.00
2022-10-05T13:25:20.989Z,22.71
2022-10-05T13:27:58.798Z,22.87
2022-10-05T13:30:31.549Z,21.38
2022-10-05T13:33:15.210Z,19.63
2022-10-05T13:35:51.142Z,17.98
2022-10-05T13:38:36.366Z,16.57
2022-10-05T13:41:26.401Z,15.55
2022-10-05T13:44:27.989Z,14.77
2022-10-05T13:47:02.838Z,13.74
2022-10-05T13:49:37.787Z,13.74
2022-10-05T13:52:28.926Z,13.41
2022-10-05T13:55:06.744Z,13.06
2022-10-05T13:57:59.600Z,12.86
2022-10-05T14:00:33.236Z,12.72
2022-10-05T14:03:06.810Z,12.64
2022-10-05T14:05:41.670Z,12.60
2022-10-05T14:08:20.941Z,12.61
2022-10-05T14:10:54.494Z,12.66
2022-10-05T14:13:35.510Z,12.67
2022-10-05T14:16:22.255Z,12.59
2022-10-05T14:18:57.400Z,12.44
2022-10-05T14:21:31.828Z,12.27
2022-10-05T14:24:42.398Z,12.12
2022-10-05T14:26:55.828Z,12.24
2022-10-05T14:29:36.891Z,11.89
2022-10-05T14:32:18.946Z,11.72
2022-10-05T14:35:06.263Z,11.62
2022-10-05T14:37:47.457Z,11.49
2022-10-05T14:40:36.911Z,11.45
2022-10-05T14:43:21.110Z,11.42
2022-10-05T14:46:05.647Z,11.23
2022-10-05T14:48:43.504Z,11.14
2022-10-05T14:51:28.628Z,11.11
2022-10-05T14:54:04.285Z,11.10
2022-10-05T14:56:48.201Z,11.07
2022-10-05T14:59:35.803Z,11.10
2022-10-05T15:02:26.919Z,10.96
2022-10-05T15:05:04.826Z,10.84
2022-10-05T15:07:42.612Z,10.73
2022-10-05T15:10:25.179Z,10.62
2022-10-05T15:13:12.682Z,10.65
2022-10-05T15:15:50.483Z,10.51
2022-10-05T15:18:40.165Z,10.43
2022-10-05T15:21:32.372Z,10.30
2022-10-05T15:24:26.631Z,10.14
2022-10-05T15:27:02.153Z,9.96
2022-10-05T15:29:47.311Z,9.78
2022-10-05T15:32:29.868Z,9.50
2022-10-05T15:35:38.090Z,9.27
2022-10-05T15:38:20.695Z,9.12
2022-10-05T15:41:08.586Z,8.99
2022-10-05T15:43:46.782Z,8.91
2022-10-05T15:46:28.914Z,8.79
2022-10-05T15:49:20.931Z,8.76
2022-10-05T15:51:55.934Z,8.72
2022-10-05T15:55:05.322Z,8.71
2022-10-05T15:58:04.868Z,8.77
2022-10-05T16:00:45.877Z,8.82
2022-10-05T16:03:26.469Z,8.87
2022-10-05T16:06:08.903Z,8.95
2022-10-05T16:08:54.214Z,9.04
2022-10-05T16:11:29.400Z,9.11
2022-10-05T16:14:10.543Z,9.19
2022-10-05T16:17:00.659Z,9.34
2022-10-05T16:19:46.586Z,9.38
2022-10-05T16:22:43.472Z,9.39
2022-10-05T16:25:23.674Z,9.46
2022-10-05T16:28:23.004Z,9.50
2022-10-05T16:31:04.134Z,9.54
2022-10-05T16:33:53.625Z,9.58
2022-10-05T16:36:32.032Z,9.58
2022-10-05T16:39:27.949Z,9.61
2022-10-05T16:42:03.206Z,9.64
2022-10-05T16:44:50.039Z,9.68
2022-10-05T16:47:42.902Z,9.71
2022-10-05T16:50:32.960Z,9.64
2022-10-05T16:53:19.988Z,9.57
2022-10-05T16:56:01.416Z,9.58
2022-10-05T16:58:42.494Z,9.57
2022-10-05T17:01:26.325Z,9.60
2022-10-05T17:04:07.108Z,9.58
2022-10-05T17:06:42.476Z,9.62
2022-10-05T17:09:27.360Z,9.59
2022-10-05T17:12:27.164Z,9.63
2022-10-05T17:15:17.050Z,9.59
2022-10-05T17:18:26.742Z,9.60
2022-10-05T17:21:17.200Z,9.58
2022-10-05T17:24:22.033Z,9.54
2022-10-05T17:27:01.307Z,9.59
2022-10-05T17:29:52.397Z,9.58
2022-10-05T17:32:28.309Z,9.59
2022-10-05T17:35:03.295Z,9.63
2022-10-05T17:37:38.433Z,9.63
2022-10-05T17:40:30.296Z,9.68
2022-10-05T17:43:08.021Z,9.68
2022-10-05T17:45:46.298Z,9.68
2022-10-05T17:48:37.346Z,9.66
2022-10-05T17:51:25.255Z,9.61
2022-10-05T17:54:14.967Z,9.55
2022-10-05T17:56:49.857Z,9.45
2022-10-05T17:59:58.792Z,9.38
2022-10-05T18:02:38.760Z,9.31
2022-10-05T18:05:16.567Z,9.28
2022-10-05T18:07:51.035Z,9.28
2022-10-05T18:10:30.999Z,9.28
2022-10-05T18:13:09.614Z,9.24
2022-10-05T18:15:45.315Z,9.21
2022-10-05T18:18:47.373Z,9.17
2022-10-05T18:21:32.840Z,9.09
2022-10-05T18:24:08.104Z,8.94
2022-10-05T18:26:59.733Z,8.80
2022-10-05T18:29:52.400Z,8.71
2022-10-05T18:32:27.607Z,8.70
2022-10-05T18:35:29.490Z,8.71
2022-10-05T18:38:29.824Z,8.62
2022-10-05T18:41:31.934Z,8.49
2022-10-05T18:44:15.988Z,8.36
2022-10-05T18:46:53.698Z,8.25
2022-10-05T18:49:37.242Z,8.18
2022-10-05T18:52:15.004Z,8.13
2022-10-05T18:55:04.851Z,8.06
2022-10-05T18:57:51.819Z,8.00
2022-10-05T19:00:25.614Z,7.98
2022-10-05T19:03:16.842Z,7.96
2022-10-05T19:05:57.725Z,7.98
2022-10-05T19:08:33.263Z,8.04
2022-10-05T19:11:29.063Z,8.13
2022-10-05T19:14:06.928Z,8.20
2022-10-05T19:17:01.036Z,8.31
2022-10-05T19:19:42.776Z,8.40
2022-10-05T19:22:17.805Z,8.55
2022-10-05T19:24:58.484Z,8.63
2022-10-05T19:27:51.793Z,8.68
2022-10-05T19:30:24.246Z,8.77
2022-10-05T19:33:10.794Z,8.83
2022-10-05T19:35:45.671Z,8.87
2022-10-05T19:38:36.597Z,8.92
2022-10-05T19:41:23.741Z,8.97
2022-10-05T19:44:15.567Z,9.02
2022-10-05T19:47:02.565Z,9.05
2022-10-05T19:49:56.536Z,9.06
2022-10-05T19:52:32.614Z,9.06
2022-10-05T19:55:19.236Z,9.14
2022-10-05T19:57:53.809Z,9.08
2022-10-05T20:00:28.615Z,9.09
2022-10-05T20:03:15.307Z,9.06
2022-10-05T20:05:48.264Z,9.10
2022-10-05T20:08:23.045Z,9.10
2022-10-05T20:11:13.155Z,9.07
2022-10-05T20:13:57.014Z,9.06
2022-10-05T20:16:51.501Z,9.02
2022-10-05T20:19:46.621Z,9.02
2022-10-05T20:22:24.499Z,8.99
2022-10-05T20:24:58.525Z,9.13
2022-10-05T20:27:37.561Z,8.97
2022-10-05T20:30:10.896Z,9.14
2022-10-05T20:32:44.629Z,8.85
2022-10-05T20:35:17.185Z,8.78
2022-10-05T20:37:50.098Z,8.71
2022-10-05T20:40:22.107Z,8.68
2022-10-05T20:42:54.116Z,8.68
2022-10-05T20:45:26.206Z,8.67
2022-10-05T20:47:58.168Z,8.61
2022-10-05T20:50:31.820Z,8.55
2022-10-05T20:53:06.317Z,8.49
2022-10-05T20:55:37.410Z,8.48
2022-10-05T20:58:11.153Z,8.40
2022-10-05T21:01:00.950Z,8.34
2022-10-05T21:03:33.060Z,8.27
2022-10-05T21:06:06.330Z,8.28
2022-10-05T21:08:38.397Z,8.25
2022-10-05T21:11:10.633Z,8.33
2022-10-05T21:13:45.816Z,8.30
2022-10-05T21:16:19.966Z,8.31
2022-10-05T21:18:52.062Z,8.28
2022-10-05T21:21:25.805Z,8.29
2022-10-05T21:23:59.350Z,8.38
2022-10-05T21:26:31.551Z,8.43
2022-10-05T21:29:07.885Z,8.48
2022-10-05T21:31:38.879Z,8.52
2022-10-05T21:34:11.177Z,8.56
2022-10-05T21:36:43.226Z,8.57
2022-10-05T21:39:15.203Z,8.58
2022-10-05T21:41:49.750Z,8.58
2022-10-05T21:44:21.342Z,8.59
2022-10-05T21:46:53.845Z,8.82
2022-10-05T21:49:26.913Z,8.68
2022-10-05T21:52:02.103Z,8.67
2022-10-05T21:54:35.166Z,8.67
2022-10-05T21:57:07.188Z,8.69
2022-10-05T21:59:39.299Z,8.66
2022-10-05T22:02:11.259Z,8.68
2022-10-05T22:04:43.412Z,8.68
2022-10-05T22:07:20.575Z,8.74
2022-10-05T22:09:53.096Z,8.74
2022-10-05T22:12:26.501Z,8.74
2022-10-05T22:15:00.329Z,8.73
2022-10-05T22:17:33.966Z,8.75
2022-10-05T22:20:06.438Z,8.76
2022-10-05T22:22:38.352Z,8.80
2022-10-05T22:25:10.421Z,8.84
2022-10-05T22:27:43.357Z,8.86
2022-10-05T22:30:15.777Z,8.89
2022-10-05T22:32:47.736Z,8.88
2022-10-05T22:35:19.648Z,8.89
2022-10-05T22:37:51.585Z,8.85
2022-10-05T22:40:23.504Z,8.86
2022-10-05T22:42:56.279Z,8.87
2022-10-05T22:45:32.404Z,8.91
2022-10-05T22:48:01.853Z,8.94
2022-10-05T22:50:34.137Z,8.97
2022-10-05T22:53:06.044Z,9.02
2022-10-05T22:55:38.050Z,9.03
2022-10-05T22:58:10.364Z,9.05
2022-10-05T23:00:59.071Z,9.06
2022-10-05T23:03:20.019Z,9.07
2022-10-05T23:06:00.377Z,9.11
2022-10-05T23:08:33.338Z,9.18
2022-10-05T23:11:09.736Z,9.18
2022-10-05T23:13:43.073Z,9.22
2022-10-05T23:16:17.907Z,9.25
2022-10-05T23:18:52.111Z,9.29
2022-10-05T23:21:25.795Z,9.33
2022-10-05T23:23:57.738Z,9.35
2022-10-05T23:26:29.754Z,9.36
2022-10-05T23:29:02.008Z,9.36
2022-10-05T23:31:34.670Z,9.34
2022-10-05T23:34:06.591Z,9.31
2022-10-05T23:36:38.595Z,9.26
2022-10-05T23:39:10.660Z,9.25
2022-10-05T23:41:44.344Z,9.24
2022-10-05T23:44:16.429Z,9.24
2022-10-05T23:46:48.374Z,9.26
2022-10-05T23:49:20.347Z,9.29
2022-10-05T23:51:52.215Z,9.31
2022-10-05T23:54:24.208Z,9.29
2022-10-05T23:56:56.292Z,9.28
2022-10-05T23:59:28.298Z,9.27
